Terminal Aerodrome Forecast
Issued by NWS Charleston, WV

Current Version | Previous Version | Text Only | Print | Product List | Glossary Off
Versions: 1 2 3 4 5 6 7 8 9 10 11 12 13 14 15 16 17 18 19 20 21 22 23 24

682
FTUS41 KRLX 201753
TAFPKB
TAF
KPKB 201753Z 2018/2118 19004KT P6SM BKN120
     FM210000 17005KT 6SM -SHRA OVC040
     FM210200 18005KT 3SM SHRA OVC030
     FM210500 VRB03KT 3SM -SHRA OVC010
     FM210600 VRB04KT 3SM -SHRA OVC010
     FM211400 35005KT 6SM -SHRA OVC015=

USA.gov is the U.S. government's official web portal to all federal, state and local government web resources and services.